createdAt,value
2023-03-31T00:00:53.428Z,4.50
2023-03-31T00:03:24.384Z,4.55
2023-03-31T00:05:59.407Z,4.22
2023-03-31T00:08:30.886Z,4.53
2023-03-31T00:11:01.521Z,4.05
2023-03-31T00:13:29.948Z,4.50
2023-03-31T00:15:59.140Z,3.83
2023-03-31T00:18:26.460Z,4.20
2023-03-31T00:20:54.760Z,4.78
2023-03-31T00:23:27.941Z,4.25
2023-03-31T00:25:56.223Z,4.30
2023-03-31T00:28:23.382Z,4.45
2023-03-31T00:30:51.798Z,4.43
2023-03-31T00:33:19.001Z,4.38
2023-03-31T00:35:46.292Z,4.03
2023-03-31T00:38:14.162Z,3.80
2023-03-31T00:40:47.454Z,4.10
2023-03-31T00:43:37.056Z,4.05
2023-03-31T00:46:24.241Z,3.83
2023-03-31T00:48:57.831Z,4.30
2023-03-31T00:51:27.796Z,4.13
2023-03-31T00:54:05.164Z,4.20
2023-03-31T00:56:40.180Z,4.53
2023-03-31T00:59:11.771Z,3.90
2023-03-31T01:01:43.213Z,4.00
2023-03-31T01:04:12.877Z,4.05
2023-03-31T01:06:52.498Z,4.30
2023-03-31T01:09:20.447Z,4.22
2023-03-31T01:11:48.734Z,3.92
2023-03-31T01:14:16.287Z,3.60
2023-03-31T01:16:43.508Z,4.60
2023-03-31T01:19:24.635Z,4.03
2023-03-31T01:22:24.625Z,3.60
2023-03-31T01:25:20.662Z,3.70
2023-03-31T01:28:12.132Z,3.42
2023-03-31T01:31:00.499Z,3.40
2023-03-31T01:33:48.580Z,3.25
2023-03-31T01:36:46.866Z,2.88
2023-03-31T01:39:46.705Z,2.47
2023-03-31T01:42:31.646Z,2.78
2023-03-31T01:45:22.631Z,3.70
2023-03-31T01:47:59.936Z,3.45
2023-03-31T01:50:36.932Z,3.15
2023-03-31T01:53:35.763Z,2.97
2023-03-31T01:56:18.484Z,3.45
2023-03-31T01:59:21.027Z,3.25
2023-03-31T02:01:59.466Z,3.10
2023-03-31T02:04:35.313Z,3.28
2023-03-31T02:07:10.048Z,3.50
2023-03-31T02:09:44.483Z,3.40
2023-03-31T02:12:13.002Z,3.42
2023-03-31T02:14:43.662Z,2.65
2023-03-31T02:19:45.539Z,2.95
2023-03-31T02:22:14.519Z,3.22
2023-03-31T02:24:43.407Z,3.50
2023-03-31T02:27:39.869Z,3.10
2023-03-31T02:30:09.077Z,3.15
2023-03-31T02:32:38.572Z,3.60
2023-03-31T02:35:09.709Z,3.22
2023-03-31T02:37:38.403Z,3.03
2023-03-31T02:40:12.966Z,3.35
2023-03-31T02:42:41.494Z,3.55
2023-03-31T02:45:42.565Z,3.38
2023-03-31T02:48:25.050Z,3.40
2023-03-31T02:51:17.854Z,3.10
2023-03-31T02:53:47.670Z,3.50
2023-03-31T02:56:51.613Z,3.37
2023-03-31T02:59:41.904Z,3.33
2023-03-31T03:02:33.645Z,3.72
2023-03-31T03:05:21.166Z,3.28
2023-03-31T03:08:16.670Z,3.47
2023-03-31T03:10:56.203Z,3.05
2023-03-31T03:13:32.864Z,2.97
2023-03-31T03:16:27.526Z,3.30
2023-03-31T03:19:03.443Z,3.38
2023-03-31T03:21:31.157Z,3.35
2023-03-31T03:23:59.948Z,3.00
2023-03-31T03:26:28.444Z,3.25
2023-03-31T03:28:57.122Z,3.03
2023-03-31T03:31:26.332Z,3.35
2023-03-31T03:33:54.033Z,2.88
2023-03-31T03:36:21.916Z,3.58
2023-03-31T03:38:49.433Z,3.67
2023-03-31T03:41:16.700Z,3.47
2023-03-31T03:43:43.803Z,3.22
2023-03-31T03:46:11.514Z,2.78
2023-03-31T03:48:38.636Z,3.00
2023-03-31T03:51:06.759Z,3.88
2023-03-31T03:53:34.146Z,3.42
2023-03-31T03:56:01.797Z,3.17
2023-03-31T03:58:29.090Z,3.30
2023-03-31T04:00:58.617Z,3.95
2023-03-31T04:03:26.175Z,3.20
2023-03-31T04:05:53.551Z,3.08
2023-03-31T04:08:21.029Z,3.50
2023-03-31T04:10:49.447Z,3.28
2023-03-31T04:13:17.695Z,3.05
2023-03-31T04:15:45.600Z,4.13
2023-03-31T04:18:23.368Z,4.03
2023-03-31T04:21:04.873Z,2.47
2023-03-31T04:23:38.616Z,2.58
2023-03-31T04:26:09.136Z,3.03
2023-03-31T04:28:37.508Z,2.38
2023-03-31T04:31:08.186Z,2.70
2023-03-31T04:38:48.194Z,2.80
2023-03-31T04:41:15.656Z,3.80
2023-03-31T04:43:43.439Z,2.83
2023-03-31T04:46:10.808Z,3.50
2023-03-31T04:48:39.109Z,3.30
2023-03-31T04:51:06.816Z,2.75
2023-03-31T04:53:34.161Z,2.47
2023-03-31T04:56:01.701Z,2.00
2023-03-31T04:58:29.051Z,3.22
2023-03-31T05:00:56.241Z,3.67
2023-03-31T05:03:23.700Z,3.35
2023-03-31T05:05:51.185Z,2.83
2023-03-31T05:08:18.464Z,3.47
2023-03-31T05:10:46.485Z,3.05
2023-03-31T05:13:13.667Z,3.35
2023-03-31T05:15:40.913Z,2.97
2023-03-31T05:18:08.621Z,3.42
2023-03-31T05:20:35.834Z,3.40
2023-03-31T05:23:07.120Z,3.50
2023-03-31T05:25:34.590Z,3.08
2023-03-31T05:28:02.647Z,3.33
2023-03-31T05:30:30.190Z,3.72
2023-03-31T05:32:57.388Z,2.53
2023-03-31T05:35:24.709Z,2.67
2023-03-31T05:37:51.830Z,2.80
2023-03-31T05:40:19.040Z,2.78
2023-03-31T05:42:46.069Z,3.30
2023-03-31T05:45:13.196Z,3.28
2023-03-31T05:47:40.828Z,4.10
2023-03-31T05:50:09.405Z,3.75
2023-03-31T05:52:36.770Z,2.97
2023-03-31T05:55:04.661Z,3.15
2023-03-31T05:57:32.056Z,3.03
2023-03-31T05:59:59.375Z,2.85
2023-03-31T06:02:26.584Z,3.50
2023-03-31T06:04:54.022Z,3.70
2023-03-31T06:07:22.482Z,3.90
2023-03-31T06:09:49.598Z,3.50
2023-03-31T06:12:17.326Z,3.40
2023-03-31T06:14:44.461Z,3.15
2023-03-31T06:17:11.461Z,4.13
2023-03-31T06:19:38.538Z,3.63
2023-03-31T06:22:05.709Z,3.55
2023-03-31T06:24:32.726Z,2.80
2023-03-31T06:27:01.192Z,3.40
2023-03-31T06:29:28.469Z,4.03
2023-03-31T06:31:55.727Z,1.67
2023-03-31T06:34:22.834Z,5.20
2023-03-31T06:36:50.054Z,4.10
2023-03-31T06:39:17.206Z,6.47
2023-03-31T06:41:44.306Z,5.57
2023-03-31T06:44:11.576Z,3.85
2023-03-31T06:46:38.692Z,4.38
2023-03-31T06:49:05.949Z,5.07
2023-03-31T06:51:33.027Z,5.05
2023-03-31T06:54:00.009Z,5.38
2023-03-31T06:56:28.241Z,5.20
2023-03-31T06:58:55.485Z,5.60
2023-03-31T07:01:22.583Z,5.10
2023-03-31T07:03:49.677Z,6.40
2023-03-31T07:06:16.983Z,6.65
2023-03-31T07:08:44.074Z,4.50
2023-03-31T07:11:11.871Z,8.05
2023-03-31T07:13:39.001Z,6.07
2023-03-31T07:16:07.599Z,5.20
2023-03-31T07:18:36.660Z,7.32
2023-03-31T07:21:07.210Z,7.57
2023-03-31T07:23:37.547Z,5.65
2023-03-31T07:26:04.813Z,5.43
2023-03-31T07:28:32.532Z,6.38
2023-03-31T07:30:59.614Z,4.65
2023-03-31T07:33:26.752Z,4.85
2023-03-31T07:36:07.908Z,6.03
2023-03-31T07:38:37.546Z,5.60
2023-03-31T07:41:09.118Z,4.90
2023-03-31T07:43:36.409Z,2.88
2023-03-31T07:46:05.636Z,4.85
2023-03-31T07:48:33.938Z,4.72
2023-03-31T07:51:00.987Z,4.20
2023-03-31T07:53:28.161Z,5.85
2023-03-31T07:55:55.209Z,4.97
2023-03-31T07:58:22.394Z,5.28
2023-03-31T08:00:49.457Z,5.03
2023-03-31T08:03:16.666Z,3.30
2023-03-31T08:05:43.851Z,4.13
2023-03-31T08:08:11.016Z,5.55
2023-03-31T08:10:38.051Z,5.88
2023-03-31T08:13:05.345Z,4.35
2023-03-31T08:15:32.335Z,4.63
2023-03-31T08:17:59.591Z,4.88
2023-03-31T08:20:26.747Z,4.35
2023-03-31T08:22:53.754Z,4.82
2023-03-31T08:25:21.432Z,3.75
2023-03-31T08:27:51.706Z,4.55
2023-03-31T08:30:20.578Z,3.35
2023-03-31T08:32:47.717Z,1.85
2023-03-31T08:35:14.971Z,4.75
2023-03-31T08:37:42.131Z,3.70
2023-03-31T08:40:18.438Z,5.03
2023-03-31T08:42:49.405Z,5.03
2023-03-31T08:45:36.493Z,4.32
2023-03-31T08:48:31.911Z,4.85
2023-03-31T08:51:08.561Z,4.40
2023-03-31T08:53:45.158Z,4.68
2023-03-31T08:56:21.125Z,5.13
2023-03-31T08:58:50.256Z,4.95
2023-03-31T09:01:23.455Z,4.95
2023-03-31T09:04:27.438Z,3.33
2023-03-31T09:07:11.633Z,5.45
2023-03-31T09:10:03.886Z,4.43
2023-03-31T09:13:22.018Z,4.35
2023-03-31T09:16:04.605Z,4.28
2023-03-31T09:18:37.759Z,4.05
2023-03-31T09:21:30.770Z,3.95
2023-03-31T09:24:02.253Z,4.47
2023-03-31T09:26:42.484Z,3.88
2023-03-31T09:29:19.335Z,3.60
2023-03-31T09:31:47.501Z,3.45
2023-03-31T09:34:17.700Z,3.80
2023-03-31T09:36:44.927Z,3.00
2023-03-31T09:39:15.556Z,2.30
2023-03-31T09:44:50.524Z,4.40
2023-03-31T09:47:24.475Z,2.47
2023-03-31T09:49:54.224Z,2.53
2023-03-31T09:52:33.221Z,3.33
2023-03-31T09:55:07.250Z,3.58
2023-03-31T09:57:39.283Z,3.55
2023-03-31T10:00:16.575Z,3.78
2023-03-31T10:02:45.910Z,2.78
2023-03-31T10:05:36.832Z,3.53
2023-03-31T10:08:40.397Z,3.78
2023-03-31T10:11:11.581Z,3.03
2023-03-31T10:13:53.424Z,4.70
2023-03-31T10:16:34.779Z,4.20
2023-03-31T10:19:19.274Z,3.53
2023-03-31T10:21:48.609Z,4.28
2023-03-31T10:24:19.813Z,3.95
2023-03-31T10:26:53.582Z,3.80
2023-03-31T10:29:30.010Z,3.28
2023-03-31T10:32:10.219Z,4.35
2023-03-31T10:34:43.183Z,4.35
2023-03-31T10:37:22.807Z,4.68
2023-03-31T10:40:18.912Z,3.97
2023-03-31T10:42:49.871Z,3.95
2023-03-31T10:45:29.648Z,3.80
2023-03-31T10:48:01.823Z,4.30
2023-03-31T10:50:36.939Z,3.70
2023-03-31T10:53:14.182Z,3.72
2023-03-31T10:56:22.459Z,3.58
2023-03-31T10:59:14.310Z,2.80
2023-03-31T11:01:46.976Z,3.03
2023-03-31T11:04:38.694Z,2.10
2023-03-31T11:07:29.634Z,2.88
2023-03-31T11:10:21.630Z,3.58
2023-03-31T11:13:11.466Z,3.72
2023-03-31T11:15:51.055Z,3.67
2023-03-31T11:18:33.210Z,3.88
2023-03-31T11:21:45.200Z,3.55
2023-03-31T11:24:41.358Z,2.75
2023-03-31T11:27:41.535Z,3.83
2023-03-31T11:30:17.748Z,3.40
2023-03-31T11:32:49.423Z,2.85
2023-03-31T11:35:22.923Z,2.53
2023-03-31T11:38:01.849Z,3.22
2023-03-31T11:40:34.480Z,2.92
2023-03-31T11:43:12.637Z,3.50
2023-03-31T11:45:55.512Z,2.85
2023-03-31T11:48:39.817Z,2.78
2023-03-31T11:51:14.772Z,2.85
2023-03-31T11:53:44.599Z,3.30
2023-03-31T11:56:13.058Z,3.67
2023-03-31T11:58:59.460Z,3.58
2023-03-31T12:01:30.114Z,3.95
2023-03-31T12:06:40.950Z,3.80
2023-03-31T12:09:21.300Z,3.65
2023-03-31T12:11:59.840Z,4.13
2023-03-31T12:14:47.971Z,3.60
2023-03-31T12:17:23.331Z,3.00
2023-03-31T12:19:55.541Z,3.28
2023-03-31T12:22:25.816Z,3.10
2023-03-31T12:24:54.288Z,3.72
2023-03-31T12:27:27.956Z,3.92
2023-03-31T12:29:59.475Z,3.65
2023-03-31T12:32:43.669Z,3.30
2023-03-31T12:35:32.764Z,3.22
2023-03-31T12:38:38.183Z,2.83
2023-03-31T12:41:27.298Z,1.95
2023-03-31T12:44:06.213Z,2.55
2023-03-31T12:46:46.544Z,2.70
2023-03-31T12:49:37.629Z,2.55
2023-03-31T12:52:09.092Z,2.53
2023-03-31T12:54:48.972Z,3.42
2023-03-31T12:57:22.209Z,3.70
2023-03-31T13:00:19.550Z,2.78
2023-03-31T13:02:47.721Z,3.38
2023-03-31T13:05:36.752Z,2.83
2023-03-31T13:08:08.521Z,3.15
2023-03-31T13:10:58.307Z,3.08
2023-03-31T13:13:26.539Z,3.17
2023-03-31T13:15:56.687Z,3.38
2023-03-31T13:18:24.755Z,3.28
2023-03-31T13:21:06.047Z,3.33
2023-03-31T13:23:36.234Z,2.63
2023-03-31T13:26:03.985Z,2.53
2023-03-31T13:28:44.953Z,2.95
2023-03-31T13:31:14.582Z,2.97
2023-03-31T13:34:03.182Z,2.80
2023-03-31T13:36:33.324Z,2.92
2023-03-31T13:39:39.642Z,2.70
2023-03-31T13:42:25.248Z,3.25
2023-03-31T13:44:55.894Z,2.75
2023-03-31T13:50:02.123Z,3.00
2023-03-31T13:52:54.889Z,2.53
2023-03-31T13:55:59.239Z,3.13
2023-03-31T13:58:50.593Z,2.80
2023-03-31T14:01:36.186Z,2.63
2023-03-31T14:04:16.910Z,2.95
2023-03-31T14:09:31.277Z,2.78
2023-03-31T14:12:18.695Z,2.60
2023-03-31T14:14:45.797Z,2.97
2023-03-31T14:17:13.173Z,2.75
2023-03-31T14:19:48.238Z,2.63
2023-03-31T14:22:39.663Z,2.80
2023-03-31T14:25:45.060Z,2.70
2023-03-31T14:28:36.290Z,3.00
2023-03-31T14:31:06.380Z,3.40
2023-03-31T14:33:39.403Z,3.00
2023-03-31T14:36:39.023Z,3.00
2023-03-31T14:39:11.132Z,3.25
2023-03-31T14:41:38.415Z,3.20
2023-03-31T14:44:08.259Z,3.05
2023-03-31T14:46:39.726Z,3.25
2023-03-31T14:49:28.374Z,3.35
2023-03-31T14:52:01.633Z,3.53
2023-03-31T14:54:33.966Z,3.50
2023-03-31T14:57:02.122Z,3.10
2023-03-31T14:59:34.677Z,3.65
2023-03-31T15:02:04.795Z,3.40
2023-03-31T15:04:45.238Z,3.58
2023-03-31T15:07:13.372Z,3.33
2023-03-31T15:09:42.829Z,3.05
2023-03-31T15:12:15.399Z,2.83
2023-03-31T15:14:49.331Z,3.47
2023-03-31T15:17:21.188Z,2.90
2023-03-31T15:20:01.072Z,3.58
2023-03-31T15:22:30.886Z,3.38
2023-03-31T15:24:58.365Z,3.33
2023-03-31T15:27:39.536Z,3.00
2023-03-31T15:30:09.292Z,3.30
2023-03-31T15:32:39.243Z,2.77
2023-03-31T15:35:21.585Z,3.20
2023-03-31T15:37:52.446Z,1.95
2023-03-31T15:40:40.582Z,3.47
2023-03-31T15:43:27.962Z,2.70
2023-03-31T15:45:59.469Z,2.80
2023-03-31T15:48:53.277Z,2.65
2023-03-31T15:51:26.131Z,2.80
2023-03-31T15:53:54.896Z,3.08
2023-03-31T15:56:42.541Z,2.80
2023-03-31T16:02:22.637Z,2.65
2023-03-31T16:05:01.437Z,3.47
2023-03-31T16:07:34.760Z,3.13
2023-03-31T16:10:16.177Z,3.28
2023-03-31T16:12:53.352Z,2.92
2023-03-31T16:13:34.505Z,2.92
2023-03-31T16:15:35.208Z,3.70
2023-03-31T16:18:32.493Z,3.03
2023-03-31T16:21:03.744Z,3.50
2023-03-31T16:23:38.994Z,3.25
2023-03-31T16:26:07.364Z,3.50
2023-03-31T16:28:38.531Z,3.22
2023-03-31T16:31:26.445Z,3.30
2023-03-31T16:33:55.920Z,3.47
2023-03-31T16:36:23.112Z,3.13
2023-03-31T16:38:54.088Z,3.53
2023-03-31T16:41:23.397Z,3.22
2023-03-31T16:43:52.762Z,3.53
2023-03-31T16:46:20.099Z,3.15
2023-03-31T16:48:47.770Z,3.45
2023-03-31T16:51:15.398Z,3.50
2023-03-31T16:53:42.788Z,3.17
2023-03-31T16:56:12.032Z,3.30
2023-03-31T16:58:41.147Z,3.25
2023-03-31T17:01:09.122Z,3.47
2023-03-31T17:03:41.909Z,3.70
2023-03-31T17:06:12.621Z,3.60
2023-03-31T17:08:40.324Z,3.65
2023-03-31T17:11:14.467Z,3.15
2023-03-31T17:13:43.607Z,3.78
2023-03-31T17:18:42.346Z,3.38
2023-03-31T17:21:11.988Z,3.35
2023-03-31T17:23:39.564Z,2.80
2023-03-31T17:26:10.298Z,3.45
2023-03-31T17:28:37.943Z,3.30
2023-03-31T17:31:12.267Z,3.30
2023-03-31T17:33:40.238Z,3.45
2023-03-31T17:36:07.903Z,3.45
2023-03-31T17:38:35.175Z,3.88
2023-03-31T17:41:06.833Z,3.40
2023-03-31T17:43:35.578Z,3.10
2023-03-31T17:46:10.829Z,3.40
2023-03-31T17:48:39.589Z,3.35
2023-03-31T17:51:15.199Z,3.78
2023-03-31T17:53:43.580Z,3.50
2023-03-31T17:56:11.282Z,3.40
2023-03-31T17:58:38.419Z,3.65
2023-03-31T18:01:08.021Z,3.42
2023-03-31T18:03:35.890Z,3.08
2023-03-31T18:06:04.956Z,3.40
2023-03-31T18:08:32.482Z,3.47
2023-03-31T18:10:59.721Z,3.20
2023-03-31T18:13:26.876Z,3.42
2023-03-31T18:15:54.172Z,3.47
2023-03-31T18:18:23.373Z,3.40
2023-03-31T18:20:50.555Z,3.58
2023-03-31T18:23:17.718Z,3.65
2023-03-31T18:25:46.453Z,3.80
2023-03-31T18:28:14.946Z,3.88
2023-03-31T18:30:43.682Z,3.70
2023-03-31T18:33:11.912Z,3.40
2023-03-31T18:35:39.641Z,3.28
2023-03-31T18:38:07.350Z,3.65
2023-03-31T18:40:34.645Z,3.83
2023-03-31T18:43:02.863Z,3.13
2023-03-31T18:45:30.977Z,3.35
2023-03-31T18:47:58.930Z,3.20
2023-03-31T18:50:26.172Z,3.50
2023-03-31T18:52:54.674Z,3.47
2023-03-31T18:55:22.491Z,3.28
2023-03-31T18:57:49.953Z,3.15
2023-03-31T19:00:17.930Z,3.22
2023-03-31T19:02:45.399Z,3.40
2023-03-31T19:05:12.563Z,3.28
2023-03-31T19:07:40.807Z,2.97
2023-03-31T19:10:08.670Z,2.97
2023-03-31T19:12:35.751Z,3.13
2023-03-31T19:15:03.074Z,2.80
2023-03-31T19:17:30.267Z,2.97
2023-03-31T19:19:57.335Z,3.17
2023-03-31T19:22:25.919Z,3.30
2023-03-31T19:24:53.149Z,3.25
2023-03-31T19:27:20.227Z,2.88
2023-03-31T19:29:47.397Z,2.92
2023-03-31T19:32:14.522Z,3.08
2023-03-31T19:34:42.719Z,2.80
2023-03-31T19:37:10.431Z,2.58
2023-03-31T19:39:37.712Z,2.97
2023-03-31T19:42:04.912Z,3.17
2023-03-31T19:44:31.965Z,3.33
2023-03-31T19:46:59.591Z,3.42
2023-03-31T19:49:27.347Z,3.63
2023-03-31T19:51:56.149Z,3.13
2023-03-31T19:54:23.470Z,3.33
2023-03-31T19:56:50.730Z,3.67
2023-03-31T19:59:17.967Z,3.67
2023-03-31T20:01:45.885Z,3.95
2023-03-31T20:04:17.308Z,3.17
2023-03-31T20:06:45.532Z,3.55
2023-03-31T20:09:13.800Z,3.63
2023-03-31T20:11:42.675Z,3.63
2023-03-31T20:14:10.862Z,3.10
2023-03-31T20:16:38.297Z,3.78
2023-03-31T20:19:06.385Z,3.42
2023-03-31T20:21:36.672Z,3.90
2023-03-31T20:24:04.683Z,3.63
2023-03-31T20:26:33.632Z,3.70
2023-03-31T20:29:02.887Z,3.92
2023-03-31T20:31:32.844Z,3.60
2023-03-31T20:34:00.259Z,3.25
2023-03-31T20:36:31.711Z,3.45
2023-03-31T20:39:00.522Z,3.78
2023-03-31T20:41:29.040Z,3.67
2023-03-31T20:43:57.082Z,3.78
2023-03-31T20:46:24.715Z,4.00
2023-03-31T20:48:55.326Z,4.15
2023-03-31T20:53:53.600Z,3.45
2023-03-31T20:56:23.657Z,3.95
2023-03-31T20:58:53.704Z,3.40
2023-03-31T21:01:22.676Z,3.28
2023-03-31T21:03:50.478Z,4.03
2023-03-31T21:06:19.108Z,4.05
2023-03-31T21:08:51.231Z,4.03
2023-03-31T21:11:18.824Z,3.92
2023-03-31T21:13:48.314Z,3.60
2023-03-31T21:16:16.550Z,3.63
2023-03-31T21:18:44.169Z,3.65
2023-03-31T21:21:16.398Z,3.92
2023-03-31T21:23:43.569Z,3.22
2023-03-31T21:26:14.647Z,3.40
2023-03-31T21:28:42.420Z,3.50
2023-03-31T21:31:15.554Z,3.53
2023-03-31T21:33:43.685Z,3.50
2023-03-31T21:36:13.585Z,3.72
2023-03-31T21:38:41.564Z,4.03
2023-03-31T21:41:17.413Z,4.20
2023-03-31T21:43:45.156Z,3.58
2023-03-31T21:46:20.470Z,3.22
2023-03-31T21:48:49.110Z,3.45
2023-03-31T21:51:17.912Z,3.78
2023-03-31T21:53:45.232Z,2.85
2023-03-31T21:56:12.563Z,3.08
2023-03-31T21:58:39.995Z,3.25
2023-03-31T22:01:08.693Z,3.80
2023-03-31T22:03:36.926Z,4.15
2023-03-31T22:06:10.054Z,4.63
2023-03-31T22:08:38.610Z,4.68
2023-03-31T22:11:07.948Z,4.28
2023-03-31T22:13:35.899Z,4.45
2023-03-31T22:16:05.679Z,3.45
2023-03-31T22:18:32.971Z,4.83
2023-03-31T22:21:01.235Z,4.50
2023-03-31T22:23:28.641Z,3.97
2023-03-31T22:25:56.029Z,4.43
2023-03-31T22:28:23.319Z,4.15
2023-03-31T22:30:50.700Z,3.88
2023-03-31T22:33:17.930Z,4.80
2023-03-31T22:35:45.411Z,4.70
2023-03-31T22:38:14.098Z,3.85
2023-03-31T22:40:41.577Z,3.65
2023-03-31T22:43:09.032Z,4.50
2023-03-31T22:45:37.985Z,4.50
2023-03-31T22:48:07.447Z,4.25
2023-03-31T22:50:34.748Z,4.22
2023-03-31T22:53:02.090Z,4.88
2023-03-31T22:55:29.876Z,4.80
2023-03-31T22:57:57.312Z,4.95
2023-03-31T23:00:24.463Z,5.35
2023-03-31T23:02:51.637Z,4.55
2023-03-31T23:05:19.295Z,4.35
2023-03-31T23:07:46.880Z,4.82
2023-03-31T23:10:14.139Z,4.63
2023-03-31T23:12:41.466Z,4.25
2023-03-31T23:15:08.963Z,4.90
2023-03-31T23:17:36.580Z,4.68
2023-03-31T23:20:04.764Z,3.95
2023-03-31T23:22:32.217Z,4.30
2023-03-31T23:24:59.318Z,4.13
2023-03-31T23:27:26.467Z,3.58
2023-03-31T23:29:53.674Z,4.05
2023-03-31T23:32:21.033Z,4.30
2023-03-31T23:34:48.329Z,4.43
2023-03-31T23:37:15.866Z,4.00
2023-03-31T23:39:43.207Z,4.30
2023-03-31T23:42:12.681Z,4.53
2023-03-31T23:44:39.845Z,4.50
2023-03-31T23:47:07.094Z,3.28
2023-03-31T23:49:34.299Z,4.03
2023-03-31T23:52:01.580Z,3.47
2023-03-31T23:54:29.235Z,4.35
2023-03-31T23:56:56.562Z,3.78
2023-03-31T23:59:23.774Z,3.40
